sensor_id;sensor_type;location;lat;lon;timestamp;pressure;altitude;pressure_sealevel;temperature;humidity
58072;BME280;60383;46.626;18.866;2024-02-21T00:01:25;101305.63;;;7.90;81.56
58072;BME280;60383;46.626;18.866;2024-02-21T00:03:50;101297.16;;;7.82;81.59
58072;BME280;60383;46.626;18.866;2024-02-21T00:06:16;101293.06;;;8.12;80.50
58072;BME280;60383;46.626;18.866;2024-02-21T00:08:41;101297.25;;;8.05;80.42
58072;BME280;60383;46.626;18.866;2024-02-21T00:11:07;101295.22;;;7.95;80.91
58072;BME280;60383;46.626;18.866;2024-02-21T00:13:32;101300.22;;;8.02;80.02
58072;BME280;60383;46.626;18.866;2024-02-21T00:16:00;101288.50;;;7.88;80.00
58072;BME280;60383;46.626;18.866;2024-02-21T00:18:26;101297.47;;;8.02;80.30
58072;BME280;60383;46.626;18.866;2024-02-21T00:20:52;101296.00;;;8.09;79.74
58072;BME280;60383;46.626;18.866;2024-02-21T00:23:17;101299.00;;;8.06;79.77
58072;BME280;60383;46.626;18.866;2024-02-21T00:25:43;101296.22;;;7.94;79.85
58072;BME280;60383;46.626;18.866;2024-02-21T00:28:08;101293.06;;;7.76;80.98
58072;BME280;60383;46.626;18.866;2024-02-21T00:30:34;101287.91;;;7.60;80.98
58072;BME280;60383;46.626;18.866;2024-02-21T00:32:59;101298.09;;;7.94;79.89
58072;BME280;60383;46.626;18.866;2024-02-21T00:35:25;101298.22;;;7.92;79.72
58072;BME280;60383;46.626;18.866;2024-02-21T00:37:51;101301.56;;;7.96;79.20
58072;BME280;60383;46.626;18.866;2024-02-21T00:40:16;101293.84;;;7.90;79.95
58072;BME280;60383;46.626;18.866;2024-02-21T00:42:48;101294.22;;;7.85;80.10
58072;BME280;60383;46.626;18.866;2024-02-21T00:45:14;101288.00;;;7.83;80.17
58072;BME280;60383;46.626;18.866;2024-02-21T00:47:39;101286.88;;;7.74;80.31
58072;BME280;60383;46.626;18.866;2024-02-21T00:50:06;101284.88;;;7.76;81.10
58072;BME280;60383;46.626;18.866;2024-02-21T00:52:32;101291.84;;;7.80;80.70
58072;BME280;60383;46.626;18.866;2024-02-21T00:54:58;101284.59;;;8.04;79.43
58072;BME280;60383;46.626;18.866;2024-02-21T00:57:23;101282.16;;;7.52;81.25
58072;BME280;60383;46.626;18.866;2024-02-21T00:59:49;101279.78;;;7.72;81.59
58072;BME280;60383;46.626;18.866;2024-02-21T01:02:14;101274.38;;;7.47;81.89
58072;BME280;60383;46.626;18.866;2024-02-21T01:04:40;101273.72;;;7.44;82.18
58072;BME280;60383;46.626;18.866;2024-02-21T01:07:05;101273.63;;;7.57;82.18
58072;BME280;60383;46.626;18.866;2024-02-21T01:09:31;101281.94;;;7.55;82.29
58072;BME280;60383;46.626;18.866;2024-02-21T01:11:56;101275.38;;;7.58;82.14
58072;BME280;60383;46.626;18.866;2024-02-21T01:14:21;101272.53;;;7.59;81.88
58072;BME280;60383;46.626;18.866;2024-02-21T01:16:47;101281.25;;;7.64;81.99
58072;BME280;60383;46.626;18.866;2024-02-21T01:19:12;101273.53;;;7.58;81.41
58072;BME280;60383;46.626;18.866;2024-02-21T01:21:38;101273.16;;;7.63;81.86
58072;BME280;60383;46.626;18.866;2024-02-21T01:24:03;101266.72;;;7.64;81.15
58072;BME280;60383;46.626;18.866;2024-02-21T01:26:29;101263.53;;;7.70;81.40
58072;BME280;60383;46.626;18.866;2024-02-21T01:28:54;101262.91;;;7.66;81.66
58072;BME280;60383;46.626;18.866;2024-02-21T01:31:20;101263.28;;;7.62;80.81
58072;BME280;60383;46.626;18.866;2024-02-21T01:33:45;101260.44;;;7.75;80.17
58072;BME280;60383;46.626;18.866;2024-02-21T01:36:11;101250.72;;;7.59;80.59
58072;BME280;60383;46.626;18.866;2024-02-21T01:38:36;101257.47;;;7.42;81.49
58072;BME280;60383;46.626;18.866;2024-02-21T01:41:03;101249.72;;;7.49;81.43
58072;BME280;60383;46.626;18.866;2024-02-21T01:43:28;101250.66;;;7.72;80.58
58072;BME280;60383;46.626;18.866;2024-02-21T01:45:55;101245.69;;;7.66;80.72
58072;BME280;60383;46.626;18.866;2024-02-21T01:48:22;101248.22;;;7.80;79.90
58072;BME280;60383;46.626;18.866;2024-02-21T01:50:49;101232.38;;;7.97;78.80
58072;BME280;60383;46.626;18.866;2024-02-21T01:53:17;101237.94;;;7.84;79.12
58072;BME280;60383;46.626;18.866;2024-02-21T01:55:45;101242.00;;;7.78;79.58
58072;BME280;60383;46.626;18.866;2024-02-21T01:58:14;101235.22;;;7.84;78.50
58072;BME280;60383;46.626;18.866;2024-02-21T02:00:44;101228.69;;;7.62;79.03
58072;BME280;60383;46.626;18.866;2024-02-21T02:03:11;101229.75;;;7.84;78.31
58072;BME280;60383;46.626;18.866;2024-02-21T02:05:51;101229.69;;;7.73;78.19
58072;BME280;60383;46.626;18.866;2024-02-21T02:08:18;101231.22;;;7.41;79.30
58072;BME280;60383;46.626;18.866;2024-02-21T02:10:44;101240.06;;;7.56;79.04
58072;BME280;60383;46.626;18.866;2024-02-21T02:13:11;101236.66;;;7.77;78.71
58072;BME280;60383;46.626;18.866;2024-02-21T02:15:47;101240.84;;;7.58;77.97
58072;BME280;60383;46.626;18.866;2024-02-21T02:18:13;101244.34;;;7.72;78.58
58072;BME280;60383;46.626;18.866;2024-02-21T02:20:39;101247.78;;;7.62;78.18
58072;BME280;60383;46.626;18.866;2024-02-21T02:25:45;101237.84;;;7.61;78.32
58072;BME280;60383;46.626;18.866;2024-02-21T02:28:14;101240.28;;;7.53;78.32
58072;BME280;60383;46.626;18.866;2024-02-21T02:30:40;101243.38;;;7.48;78.63
58072;BME280;60383;46.626;18.866;2024-02-21T02:33:06;101245.00;;;7.51;78.91
58072;BME280;60383;46.626;18.866;2024-02-21T02:35:31;101242.81;;;7.32;78.93
58072;BME280;60383;46.626;18.866;2024-02-21T02:37:57;101236.38;;;7.57;78.43
58072;BME280;60383;46.626;18.866;2024-02-21T02:40:23;101238.06;;;7.82;77.16
58072;BME280;60383;46.626;18.866;2024-02-21T02:42:49;101239.16;;;7.80;77.52
58072;BME280;60383;46.626;18.866;2024-02-21T02:45:15;101232.63;;;8.05;75.25
58072;BME280;60383;46.626;18.866;2024-02-21T02:47:41;101237.47;;;8.02;75.89
58072;BME280;60383;46.626;18.866;2024-02-21T02:50:07;101232.00;;;8.02;75.79
58072;BME280;60383;46.626;18.866;2024-02-21T02:52:33;101238.66;;;7.86;76.17
58072;BME280;60383;46.626;18.866;2024-02-21T02:54:59;101239.19;;;7.91;75.85
58072;BME280;60383;46.626;18.866;2024-02-21T02:57:24;101238.84;;;7.96;75.76
58072;BME280;60383;46.626;18.866;2024-02-21T02:59:50;101240.19;;;7.90;75.55
58072;BME280;60383;46.626;18.866;2024-02-21T03:02:16;101237.56;;;7.89;75.95
58072;BME280;60383;46.626;18.866;2024-02-21T03:04:43;101231.59;;;7.83;76.02
58072;BME280;60383;46.626;18.866;2024-02-21T03:07:08;101230.25;;;7.89;76.23
58072;BME280;60383;46.626;18.866;2024-02-21T03:09:33;101235.34;;;7.82;76.68
58072;BME280;60383;46.626;18.866;2024-02-21T03:11:59;101240.19;;;7.90;76.83
58072;BME280;60383;46.626;18.866;2024-02-21T03:14:30;101243.66;;;7.57;77.75
58072;BME280;60383;46.626;18.866;2024-02-21T03:16:57;101243.19;;;7.63;77.89
58072;BME280;60383;46.626;18.866;2024-02-21T03:19:23;101235.19;;;7.48;78.38
58072;BME280;60383;46.626;18.866;2024-02-21T03:21:49;101246.63;;;7.54;77.76
58072;BME280;60383;46.626;18.866;2024-02-21T03:24:18;101245.06;;;7.62;78.03
58072;BME280;60383;46.626;18.866;2024-02-21T03:26:44;101238.44;;;7.89;76.69
58072;BME280;60383;46.626;18.866;2024-02-21T03:29:10;101248.06;;;7.71;77.79
58072;BME280;60383;46.626;18.866;2024-02-21T03:31:37;101251.63;;;7.60;77.32
58072;BME280;60383;46.626;18.866;2024-02-21T03:34:02;101250.94;;;7.80;76.76
58072;BME280;60383;46.626;18.866;2024-02-21T03:36:28;101250.44;;;7.75;76.71
58072;BME280;60383;46.626;18.866;2024-02-21T03:38:54;101255.31;;;7.59;77.45
58072;BME280;60383;46.626;18.866;2024-02-21T03:41:20;101257.44;;;7.66;77.60
58072;BME280;60383;46.626;18.866;2024-02-21T03:43:45;101259.91;;;7.58;77.60
58072;BME280;60383;46.626;18.866;2024-02-21T03:46:11;101256.66;;;7.53;77.74
58072;BME280;60383;46.626;18.866;2024-02-21T03:48:36;101260.78;;;7.59;78.29
58072;BME280;60383;46.626;18.866;2024-02-21T03:51:02;101263.22;;;7.50;77.99
58072;BME280;60383;46.626;18.866;2024-02-21T03:53:28;101263.66;;;7.68;77.53
58072;BME280;60383;46.626;18.866;2024-02-21T03:55:53;101268.28;;;7.44;78.43
58072;BME280;60383;46.626;18.866;2024-02-21T03:58:19;101264.38;;;7.35;79.61
58072;BME280;60383;46.626;18.866;2024-02-21T04:00:45;101264.94;;;7.51;78.93
58072;BME280;60383;46.626;18.866;2024-02-21T04:03:10;101267.69;;;7.51;78.85
58072;BME280;60383;46.626;18.866;2024-02-21T04:05:36;101255.63;;;7.43;78.96
58072;BME280;60383;46.626;18.866;2024-02-21T04:08:04;101259.34;;;7.42;79.42
58072;BME280;60383;46.626;18.866;2024-02-21T04:10:30;101255.16;;;7.49;79.23
58072;BME280;60383;46.626;18.866;2024-02-21T04:12:55;101262.06;;;7.77;78.22
58072;BME280;60383;46.626;18.866;2024-02-21T04:15:21;101254.94;;;7.99;76.24
58072;BME280;60383;46.626;18.866;2024-02-21T04:17:46;101258.19;;;8.04;76.27
58072;BME280;60383;46.626;18.866;2024-02-21T04:20:16;101259.53;;;7.98;75.74
58072;BME280;60383;46.626;18.866;2024-02-21T04:22:45;101252.22;;;7.99;75.79
58072;BME280;60383;46.626;18.866;2024-02-21T04:25:11;101251.09;;;8.02;75.87
58072;BME280;60383;46.626;18.866;2024-02-21T04:27:38;101245.50;;;8.03;76.01
58072;BME280;60383;46.626;18.866;2024-02-21T04:30:04;101236.22;;;7.94;75.94
58072;BME280;60383;46.626;18.866;2024-02-21T04:32:30;101248.63;;;7.98;76.71
58072;BME280;60383;46.626;18.866;2024-02-21T04:34:55;101235.50;;;8.15;74.84
58072;BME280;60383;46.626;18.866;2024-02-21T04:37:21;101236.88;;;8.09;75.29
58072;BME280;60383;46.626;18.866;2024-02-21T04:39:47;101236.31;;;7.81;76.88
58072;BME280;60383;46.626;18.866;2024-02-21T04:42:13;101233.75;;;8.03;75.93
58072;BME280;60383;46.626;18.866;2024-02-21T04:44:38;101232.75;;;7.92;76.26
58072;BME280;60383;46.626;18.866;2024-02-21T04:47:04;101244.66;;;8.03;75.73
58072;BME280;60383;46.626;18.866;2024-02-21T04:49:29;101236.75;;;7.99;75.89
58072;BME280;60383;46.626;18.866;2024-02-21T04:51:55;101241.81;;;8.04;76.07
58072;BME280;60383;46.626;18.866;2024-02-21T04:54:21;101239.47;;;7.99;76.05
58072;BME280;60383;46.626;18.866;2024-02-21T04:56:46;101235.97;;;7.97;76.02
58072;BME280;60383;46.626;18.866;2024-02-21T04:59:11;101238.06;;;7.94;76.12
58072;BME280;60383;46.626;18.866;2024-02-21T05:01:37;101230.47;;;7.75;77.58
58072;BME280;60383;46.626;18.866;2024-02-21T05:04:02;101230.81;;;7.70;77.38
58072;BME280;60383;46.626;18.866;2024-02-21T05:06:28;101224.78;;;7.78;77.90
58072;BME280;60383;46.626;18.866;2024-02-21T05:08:53;101227.72;;;7.75;77.87
58072;BME280;60383;46.626;18.866;2024-02-21T05:11:21;101223.16;;;7.75;77.41
58072;BME280;60383;46.626;18.866;2024-02-21T05:13:46;101224.03;;;7.87;76.93
58072;BME280;60383;46.626;18.866;2024-02-21T05:16:12;101228.63;;;7.87;77.26
58072;BME280;60383;46.626;18.866;2024-02-21T05:18:38;101216.06;;;7.73;77.65
58072;BME280;60383;46.626;18.866;2024-02-21T05:21:03;101213.88;;;7.78;77.46
58072;BME280;60383;46.626;18.866;2024-02-21T05:23:29;101212.47;;;7.72;77.62
58072;BME280;60383;46.626;18.866;2024-02-21T05:25:55;101212.13;;;7.77;77.91
58072;BME280;60383;46.626;18.866;2024-02-21T05:28:20;101211.84;;;7.68;78.13
58072;BME280;60383;46.626;18.866;2024-02-21T05:30:45;101213.25;;;7.74;77.82
58072;BME280;60383;46.626;18.866;2024-02-21T05:33:11;101225.09;;;7.62;78.62
58072;BME280;60383;46.626;18.866;2024-02-21T05:35:38;101222.44;;;7.84;77.47
58072;BME280;60383;46.626;18.866;2024-02-21T05:38:03;101229.25;;;7.79;77.53
58072;BME280;60383;46.626;18.866;2024-02-21T05:40:36;101227.25;;;7.81;76.89
58072;BME280;60383;46.626;18.866;2024-02-21T05:43:02;101227.34;;;7.68;78.25
58072;BME280;60383;46.626;18.866;2024-02-21T05:45:27;101231.75;;;7.46;78.55
58072;BME280;60383;46.626;18.866;2024-02-21T05:47:52;101238.09;;;7.58;78.32
58072;BME280;60383;46.626;18.866;2024-02-21T05:50:18;101237.69;;;7.51;79.20
58072;BME280;60383;46.626;18.866;2024-02-21T05:52:44;101244.28;;;7.60;78.96
58072;BME280;60383;46.626;18.866;2024-02-21T05:55:09;101245.00;;;7.51;79.42
58072;BME280;60383;46.626;18.866;2024-02-21T05:57:35;101247.38;;;7.56;79.59
58072;BME280;60383;46.626;18.866;2024-02-21T06:00:02;101236.91;;;7.74;78.77
58072;BME280;60383;46.626;18.866;2024-02-21T06:02:28;101246.97;;;7.84;78.71
58072;BME280;60383;46.626;18.866;2024-02-21T06:04:53;101250.25;;;8.01;76.50
58072;BME280;60383;46.626;18.866;2024-02-21T06:07:19;101246.00;;;7.86;77.92
58072;BME280;60383;46.626;18.866;2024-02-21T06:09:44;101250.38;;;7.64;77.94
58072;BME280;60383;46.626;18.866;2024-02-21T06:12:09;101247.84;;;7.85;77.24
58072;BME280;60383;46.626;18.866;2024-02-21T06:14:35;101250.66;;;7.72;77.99
58072;BME280;60383;46.626;18.866;2024-02-21T06:17:00;101251.28;;;7.76;78.28
58072;BME280;60383;46.626;18.866;2024-02-21T06:19:26;101249.69;;;7.84;77.33
58072;BME280;60383;46.626;18.866;2024-02-21T06:21:51;101248.38;;;7.90;78.04
58072;BME280;60383;46.626;18.866;2024-02-21T06:24:17;101249.22;;;7.91;77.11
58072;BME280;60383;46.626;18.866;2024-02-21T06:26:42;101248.69;;;7.74;77.91
58072;BME280;60383;46.626;18.866;2024-02-21T06:29:08;101246.34;;;7.81;78.36
58072;BME280;60383;46.626;18.866;2024-02-21T06:31:35;101256.81;;;7.98;76.78
58072;BME280;60383;46.626;18.866;2024-02-21T06:34:00;101261.22;;;7.77;77.88
58072;BME280;60383;46.626;18.866;2024-02-21T06:36:26;101267.50;;;7.66;78.56
58072;BME280;60383;46.626;18.866;2024-02-21T06:38:51;101268.09;;;7.94;77.56
58072;BME280;60383;46.626;18.866;2024-02-21T06:41:18;101263.75;;;7.91;77.35
58072;BME280;60383;46.626;18.866;2024-02-21T06:43:46;101268.44;;;7.89;77.72
58072;BME280;60383;46.626;18.866;2024-02-21T06:46:12;101267.47;;;8.02;76.61
58072;BME280;60383;46.626;18.866;2024-02-21T06:48:47;101274.50;;;7.81;78.23
58072;BME280;60383;46.626;18.866;2024-02-21T06:51:13;101275.47;;;7.80;78.03
58072;BME280;60383;46.626;18.866;2024-02-21T06:53:38;101276.13;;;7.84;78.18
58072;BME280;60383;46.626;18.866;2024-02-21T06:56:04;101270.69;;;7.95;77.25
58072;BME280;60383;46.626;18.866;2024-02-21T06:58:29;101275.78;;;8.00;76.77
58072;BME280;60383;46.626;18.866;2024-02-21T07:00:54;101279.00;;;7.94;77.81
58072;BME280;60383;46.626;18.866;2024-02-21T07:03:20;101280.53;;;7.74;77.95
58072;BME280;60383;46.626;18.866;2024-02-21T07:05:45;101284.66;;;7.79;77.91
58072;BME280;60383;46.626;18.866;2024-02-21T07:08:11;101294.59;;;7.92;77.60
58072;BME280;60383;46.626;18.866;2024-02-21T07:10:36;101301.88;;;7.80;78.16
58072;BME280;60383;46.626;18.866;2024-02-21T07:13:02;101300.31;;;7.89;78.54
58072;BME280;60383;46.626;18.866;2024-02-21T07:15:27;101304.56;;;8.04;77.62
58072;BME280;60383;46.626;18.866;2024-02-21T07:17:54;101304.97;;;8.22;77.83
58072;BME280;60383;46.626;18.866;2024-02-21T07:20:20;101298.81;;;8.43;75.81
58072;BME280;60383;46.626;18.866;2024-02-21T07:22:45;101295.25;;;8.54;76.22
58072;BME280;60383;46.626;18.866;2024-02-21T07:25:11;101291.41;;;8.90;74.43
58072;BME280;60383;46.626;18.866;2024-02-21T07:27:36;101298.03;;;9.43;71.50
58072;BME280;60383;46.626;18.866;2024-02-21T07:30:03;101298.47;;;10.34;70.03
58072;BME280;60383;46.626;18.866;2024-02-21T07:32:28;101298.38;;;11.08;66.01
58072;BME280;60383;46.626;18.866;2024-02-21T07:34:54;101296.03;;;11.73;63.11
58072;BME280;60383;46.626;18.866;2024-02-21T07:37:19;101299.38;;;11.77;62.01
58072;BME280;60383;46.626;18.866;2024-02-21T07:39:44;101296.34;;;11.70;61.70
58072;BME280;60383;46.626;18.866;2024-02-21T07:42:10;101293.72;;;11.49;63.89
58072;BME280;60383;46.626;18.866;2024-02-21T07:44:35;101296.47;;;11.49;62.37
58072;BME280;60383;46.626;18.866;2024-02-21T07:47:01;101297.03;;;11.43;62.87
58072;BME280;60383;46.626;18.866;2024-02-21T07:49:26;101295.28;;;11.42;62.27
58072;BME280;60383;46.626;18.866;2024-02-21T07:51:52;101296.00;;;11.34;63.55
58072;BME280;60383;46.626;18.866;2024-02-21T07:54:18;101285.91;;;11.44;62.36
58072;BME280;60383;46.626;18.866;2024-02-21T07:56:43;101288.81;;;11.43;62.68
58072;BME280;60383;46.626;18.866;2024-02-21T07:59:09;101284.88;;;11.26;62.28
58072;BME280;60383;46.626;18.866;2024-02-21T08:01:34;101286.88;;;11.24;62.68
58072;BME280;60383;46.626;18.866;2024-02-21T08:04:00;101278.53;;;11.25;62.50
58072;BME280;60383;46.626;18.866;2024-02-21T08:06:25;101276.22;;;11.30;61.57
58072;BME280;60383;46.626;18.866;2024-02-21T08:08:51;101277.06;;;11.21;61.75
58072;BME280;60383;46.626;18.866;2024-02-21T08:11:16;101279.78;;;11.11;62.92
58072;BME280;60383;46.626;18.866;2024-02-21T08:13:42;101281.34;;;11.04;63.14
58072;BME280;60383;46.626;18.866;2024-02-21T08:16:07;101277.94;;;11.12;62.98
58072;BME280;60383;46.626;18.866;2024-02-21T08:18:32;101275.06;;;11.23;61.66
58072;BME280;60383;46.626;18.866;2024-02-21T08:21:03;101278.63;;;11.14;62.70
58072;BME280;60383;46.626;18.866;2024-02-21T08:23:28;101274.16;;;11.23;61.96
58072;BME280;60383;46.626;18.866;2024-02-21T08:25:53;101273.28;;;11.12;62.42
58072;BME280;60383;46.626;18.866;2024-02-21T08:28:19;101279.75;;;11.01;63.04
58072;BME280;60383;46.626;18.866;2024-02-21T08:30:45;101276.88;;;11.03;63.12
58072;BME280;60383;46.626;18.866;2024-02-21T08:33:14;101279.41;;;10.85;63.54
58072;BME280;60383;46.626;18.866;2024-02-21T08:35:40;101288.13;;;10.69;64.97
58072;BME280;60383;46.626;18.866;2024-02-21T08:38:05;101274.09;;;10.52;66.08
58072;BME280;60383;46.626;18.866;2024-02-21T08:40:30;101281.22;;;10.44;66.08
58072;BME280;60383;46.626;18.866;2024-02-21T08:42:56;101279.16;;;10.57;64.95
58072;BME280;60383;46.626;18.866;2024-02-21T08:45:21;101271.81;;;10.58;64.19
58072;BME280;60383;46.626;18.866;2024-02-21T08:47:47;101269.31;;;10.54;63.08
58072;BME280;60383;46.626;18.866;2024-02-21T08:50:12;101270.06;;;10.57;63.55
58072;BME280;60383;46.626;18.866;2024-02-21T08:52:37;101271.50;;;10.61;63.23
58072;BME280;60383;46.626;18.866;2024-02-21T08:55:03;101264.31;;;10.60;62.81
58072;BME280;60383;46.626;18.866;2024-02-21T08:57:29;101266.59;;;10.85;61.91
58072;BME280;60383;46.626;18.866;2024-02-21T08:59:55;101269.19;;;10.87;61.95
58072;BME280;60383;46.626;18.866;2024-02-21T09:02:20;101272.63;;;10.79;62.15
58072;BME280;60383;46.626;18.866;2024-02-21T09:04:45;101267.03;;;10.91;62.00
58072;BME280;60383;46.626;18.866;2024-02-21T09:07:11;101262.13;;;10.94;61.91
58072;BME280;60383;46.626;18.866;2024-02-21T09:09:37;101266.88;;;10.92;61.31
58072;BME280;60383;46.626;18.866;2024-02-21T09:12:05;101260.81;;;10.89;62.87
58072;BME280;60383;46.626;18.866;2024-02-21T09:14:32;101260.94;;;11.28;61.97
58072;BME280;60383;46.626;18.866;2024-02-21T09:16:57;101258.00;;;11.10;62.13
58072;BME280;60383;46.626;18.866;2024-02-21T09:19:23;101270.34;;;10.94;62.03
58072;BME280;60383;46.626;18.866;2024-02-21T09:21:48;101262.59;;;11.09;61.45
58072;BME280;60383;46.626;18.866;2024-02-21T09:24:14;101262.75;;;11.08;62.19
58072;BME280;60383;46.626;18.866;2024-02-21T09:26:40;101255.53;;;11.16;61.07
58072;BME280;60383;46.626;18.866;2024-02-21T09:29:06;101258.81;;;10.91;63.06
58072;BME280;60383;46.626;18.866;2024-02-21T09:31:33;101262.78;;;11.27;61.90
58072;BME280;60383;46.626;18.866;2024-02-21T09:33:58;101250.06;;;11.26;61.84
58072;BME280;60383;46.626;18.866;2024-02-21T09:36:23;101253.50;;;10.99;61.86
58072;BME280;60383;46.626;18.866;2024-02-21T09:38:49;101248.06;;;11.18;60.92
58072;BME280;60383;46.626;18.866;2024-02-21T09:41:21;101249.56;;;11.52;59.71
58072;BME280;60383;46.626;18.866;2024-02-21T09:43:50;101257.78;;;11.72;59.73
58072;BME280;60383;46.626;18.866;2024-02-21T09:46:19;101248.53;;;11.63;59.42
58072;BME280;60383;46.626;18.866;2024-02-21T09:51:34;101244.34;;;11.69;59.92
58072;BME280;60383;46.626;18.866;2024-02-21T09:54:00;101250.69;;;11.89;59.06
58072;BME280;60383;46.626;18.866;2024-02-21T09:56:26;101252.56;;;12.18;58.49
58072;BME280;60383;46.626;18.866;2024-02-21T09:58:51;101252.78;;;12.34;58.33
58072;BME280;60383;46.626;18.866;2024-02-21T10:01:17;101248.47;;;12.32;58.26
58072;BME280;60383;46.626;18.866;2024-02-21T10:03:42;101254.28;;;12.28;57.98
58072;BME280;60383;46.626;18.866;2024-02-21T10:06:09;101247.63;;;12.21;57.84
58072;BME280;60383;46.626;18.866;2024-02-21T10:08:34;101247.47;;;12.33;58.83
58072;BME280;60383;46.626;18.866;2024-02-21T10:11:00;101236.53;;;12.13;57.88
58072;BME280;60383;46.626;18.866;2024-02-21T10:13:28;101234.56;;;12.33;59.00
58072;BME280;60383;46.626;18.866;2024-02-21T10:16:01;101234.97;;;12.48;56.32
58072;BME280;60383;46.626;18.866;2024-02-21T10:18:27;101234.38;;;12.54;56.13
58072;BME280;60383;46.626;18.866;2024-02-21T10:21:10;101232.47;;;12.55;56.65
58072;BME280;60383;46.626;18.866;2024-02-21T10:23:43;101230.81;;;12.34;57.20
58072;BME280;60383;46.626;18.866;2024-02-21T10:26:09;101225.47;;;12.33;56.50
58072;BME280;60383;46.626;18.866;2024-02-21T10:28:34;101230.13;;;12.32;55.60
58072;BME280;60383;46.626;18.866;2024-02-21T10:31:00;101229.44;;;12.20;56.37
58072;BME280;60383;46.626;18.866;2024-02-21T10:33:25;101226.38;;;12.23;56.94
58072;BME280;60383;46.626;18.866;2024-02-21T10:35:53;101215.38;;;12.23;56.14
58072;BME280;60383;46.626;18.866;2024-02-21T10:38:18;101209.47;;;12.18;57.27
58072;BME280;60383;46.626;18.866;2024-02-21T10:40:44;101208.91;;;12.14;56.43
58072;BME280;60383;46.626;18.866;2024-02-21T10:43:12;101205.28;;;12.24;56.17
58072;BME280;60383;46.626;18.866;2024-02-21T10:45:41;101198.78;;;12.15;57.03
58072;BME280;60383;46.626;18.866;2024-02-21T10:50:32;101191.88;;;12.49;54.74
58072;BME280;60383;46.626;18.866;2024-02-21T10:53:29;101189.00;;;12.40;54.51
58072;BME280;60383;46.626;18.866;2024-02-21T10:56:01;101185.97;;;12.43;55.10
58072;BME280;60383;46.626;18.866;2024-02-21T10:58:32;101177.94;;;12.60;54.98
58072;BME280;60383;46.626;18.866;2024-02-21T11:00:58;101179.66;;;12.61;54.89
58072;BME280;60383;46.626;18.866;2024-02-21T11:03:24;101183.56;;;12.86;54.54
58072;BME280;60383;46.626;18.866;2024-02-21T11:05:50;101184.06;;;13.46;52.73
58072;BME280;60383;46.626;18.866;2024-02-21T11:08:18;101178.88;;;13.87;50.69
58072;BME280;60383;46.626;18.866;2024-02-21T11:10:46;101171.66;;;13.86;50.63
58072;BME280;60383;46.626;18.866;2024-02-21T11:13:11;101164.28;;;13.95;48.79
58072;BME280;60383;46.626;18.866;2024-02-21T11:15:37;101155.38;;;14.01;49.52
58072;BME280;60383;46.626;18.866;2024-02-21T11:18:02;101156.31;;;14.10;49.79
58072;BME280;60383;46.626;18.866;2024-02-21T11:20:35;101155.00;;;14.57;49.16
58072;BME280;60383;46.626;18.866;2024-02-21T11:23:01;101153.03;;;14.75;46.96
58072;BME280;60383;46.626;18.866;2024-02-21T11:25:28;101145.53;;;15.02;47.49
58072;BME280;60383;46.626;18.866;2024-02-21T11:28:02;101136.94;;;15.22;46.54
58072;BME280;60383;46.626;18.866;2024-02-21T11:30:31;101134.69;;;15.50;46.61
58072;BME280;60383;46.626;18.866;2024-02-21T11:33:01;101132.44;;;15.70;45.07
58072;BME280;60383;46.626;18.866;2024-02-21T11:35:31;101125.03;;;15.46;45.53
58072;BME280;60383;46.626;18.866;2024-02-21T11:38:13;101117.41;;;15.89;46.20
58072;BME280;60383;46.626;18.866;2024-02-21T11:40:46;101112.38;;;16.09;45.03
58072;BME280;60383;46.626;18.866;2024-02-21T11:43:11;101104.41;;;16.06;45.18
58072;BME280;60383;46.626;18.866;2024-02-21T11:45:37;101111.72;;;15.66;43.70
58072;BME280;60383;46.626;18.866;2024-02-21T11:48:05;101109.50;;;15.45;45.09
58072;BME280;60383;46.626;18.866;2024-02-21T11:50:38;101107.59;;;15.70;44.92
58072;BME280;60383;46.626;18.866;2024-02-21T11:53:10;101107.03;;;16.00;45.21
58072;BME280;60383;46.626;18.866;2024-02-21T11:55:35;101097.41;;;15.71;42.84
58072;BME280;60383;46.626;18.866;2024-02-21T11:58:01;101098.97;;;15.32;43.18
58072;BME280;60383;46.626;18.866;2024-02-21T12:00:26;101101.19;;;14.95;43.45
58072;BME280;60383;46.626;18.866;2024-02-21T12:02:52;101098.06;;;14.65;44.26
58072;BME280;60383;46.626;18.866;2024-02-21T12:05:20;101098.41;;;14.71;44.55
58072;BME280;60383;46.626;18.866;2024-02-21T12:07:46;101092.63;;;14.56;44.85
58072;BME280;60383;46.626;18.866;2024-02-21T12:10:12;101092.06;;;14.35;44.72
58072;BME280;60383;46.626;18.866;2024-02-21T12:12:39;101101.91;;;14.12;44.67
58072;BME280;60383;46.626;18.866;2024-02-21T12:15:05;101091.75;;;13.78;44.86
58072;BME280;60383;46.626;18.866;2024-02-21T12:17:39;101091.03;;;13.49;45.28
58072;BME280;60383;46.626;18.866;2024-02-21T12:20:06;101088.06;;;13.24;46.11
58072;BME280;60383;46.626;18.866;2024-02-21T12:22:36;101085.25;;;13.61;46.69
58072;BME280;60383;46.626;18.866;2024-02-21T12:25:16;101089.41;;;13.38;48.01
58072;BME280;60383;46.626;18.866;2024-02-21T12:27:43;101076.66;;;13.82;46.22
58072;BME280;60383;46.626;18.866;2024-02-21T12:30:10;101078.28;;;14.01;43.78
58072;BME280;60383;46.626;18.866;2024-02-21T12:32:36;101079.47;;;13.98;44.50
58072;BME280;60383;46.626;18.866;2024-02-21T12:35:02;101067.13;;;14.02;44.32
58072;BME280;60383;46.626;18.866;2024-02-21T12:37:27;101061.75;;;14.35;43.95
58072;BME280;60383;46.626;18.866;2024-02-21T12:39:53;101062.16;;;14.57;43.29
58072;BME280;60383;46.626;18.866;2024-02-21T12:42:18;101053.59;;;14.77;42.21
58072;BME280;60383;46.626;18.866;2024-02-21T12:44:44;101056.22;;;14.95;41.87
58072;BME280;60383;46.626;18.866;2024-02-21T12:47:10;101054.16;;;14.89;41.09
58072;BME280;60383;46.626;18.866;2024-02-21T12:49:35;101060.16;;;14.84;41.62